createdAt,value
2022-11-20T00:00:37.138Z,225.00
2022-11-20T00:01:37.150Z,350.98
2022-11-20T00:02:37.136Z,53.21
2022-11-20T00:03:37.258Z,90.00
2022-11-20T00:04:37.140Z,90.00
2022-11-20T00:05:37.132Z,32.25
2022-11-20T00:06:37.124Z,315.00
2022-11-20T00:07:37.175Z,315.00
2022-11-20T00:08:37.236Z,315.00
2022-11-20T00:09:37.140Z,315.00
2022-11-20T00:10:37.154Z,315.00
2022-11-20T00:11:37.136Z,315.00
2022-11-20T00:12:37.131Z,315.00
2022-11-20T00:13:37.141Z,315.00
2022-11-20T00:14:37.151Z,315.00
2022-11-20T00:15:37.153Z,315.00
2022-11-20T00:16:37.160Z,315.00
2022-11-20T00:17:37.180Z,315.00
2022-11-20T00:18:37.151Z,315.00
2022-11-20T00:19:37.199Z,315.00
2022-11-20T00:20:37.183Z,315.00
2022-11-20T00:21:37.170Z,315.00
2022-11-20T00:22:37.146Z,315.00
2022-11-20T00:23:37.140Z,315.00
2022-11-20T00:24:42.727Z,315.00
2022-11-20T00:25:37.159Z,315.00
2022-11-20T00:26:37.174Z,315.00
2022-11-20T00:27:37.149Z,315.00
2022-11-20T00:28:37.147Z,315.00
2022-11-20T00:29:37.149Z,315.00
2022-11-20T00:30:37.155Z,315.00
2022-11-20T00:31:37.183Z,315.00
2022-11-20T00:32:37.152Z,315.00
2022-11-20T00:33:37.151Z,315.00
2022-11-20T00:34:37.188Z,315.00
2022-11-20T00:35:37.160Z,315.00
2022-11-20T00:36:37.213Z,315.00
2022-11-20T00:37:37.160Z,315.00
2022-11-20T00:38:37.154Z,315.00
2022-11-20T00:39:37.158Z,315.00
2022-11-20T00:40:37.154Z,315.00
2022-11-20T00:41:37.177Z,315.00
2022-11-20T00:42:37.152Z,315.00
2022-11-20T00:43:37.158Z,315.00
2022-11-20T00:44:37.156Z,315.00
2022-11-20T00:45:37.168Z,315.00
2022-11-20T00:46:37.184Z,315.00
2022-11-20T00:47:37.176Z,315.00
2022-11-20T00:48:37.169Z,315.00
2022-11-20T00:49:37.167Z,315.00
2022-11-20T00:50:37.164Z,315.00
2022-11-20T00:51:37.171Z,315.00
2022-11-20T00:52:37.194Z,315.00
2022-11-20T00:53:37.166Z,315.00
2022-11-20T00:54:37.169Z,135.00
2022-11-20T00:55:37.175Z,135.00
2022-11-20T00:56:37.172Z,135.00
2022-11-20T00:57:37.184Z,135.00
2022-11-20T00:58:37.167Z,135.00
2022-11-20T00:59:37.196Z,135.00
2022-11-20T01:00:37.181Z,135.00
2022-11-20T01:01:37.233Z,88.97
2022-11-20T01:02:37.196Z,0.00
2022-11-20T01:03:37.181Z,0.00
2022-11-20T01:04:37.173Z,356.47
2022-11-20T01:05:37.181Z,326.90
2022-11-20T01:06:37.189Z,135.00
2022-11-20T01:07:37.232Z,135.00
2022-11-20T01:08:37.222Z,135.00
2022-11-20T01:09:37.167Z,135.00
2022-11-20T01:10:37.183Z,142.51
2022-11-20T01:11:37.188Z,180.00
2022-11-20T01:12:37.184Z,179.91
2022-11-20T01:13:37.203Z,135.00
2022-11-20T01:14:37.197Z,135.00
2022-11-20T01:15:37.177Z,315.00
2022-11-20T01:16:37.207Z,315.00
2022-11-20T01:17:37.212Z,315.00
2022-11-20T01:18:37.195Z,315.00
2022-11-20T01:19:37.208Z,315.00
2022-11-20T01:20:37.197Z,315.00
2022-11-20T01:21:37.218Z,315.00
2022-11-20T01:22:37.205Z,315.00
2022-11-20T01:23:37.197Z,315.00
2022-11-20T01:24:37.212Z,315.00
2022-11-20T01:25:37.195Z,315.00
2022-11-20T01:26:37.211Z,339.83
2022-11-20T01:27:37.256Z,1.57
2022-11-20T01:28:37.195Z,0.00
2022-11-20T01:29:37.206Z,0.00
2022-11-20T01:30:37.196Z,357.31
2022-11-20T01:31:37.272Z,122.88
2022-11-20T01:32:59.857Z,317.54
2022-11-20T01:33:59.876Z,343.31
2022-11-20T01:34:59.908Z,10.06
2022-11-20T01:35:59.868Z,78.10
2022-11-20T01:36:59.865Z,288.77
2022-11-20T01:37:59.907Z,315.00
2022-11-20T01:38:59.881Z,315.00
2022-11-20T01:39:59.873Z,315.00
2022-11-20T01:40:59.890Z,315.00
2022-11-20T01:41:59.880Z,318.09
2022-11-20T01:42:59.901Z,315.00
2022-11-20T01:43:59.902Z,315.00
2022-11-20T01:44:59.911Z,315.00
2022-11-20T01:45:59.905Z,315.00
2022-11-20T01:46:59.898Z,315.00
2022-11-20T01:47:59.903Z,305.02
2022-11-20T01:48:59.914Z,135.00
2022-11-20T01:49:59.919Z,315.00
2022-11-20T01:50:59.916Z,315.00
2022-11-20T01:51:59.923Z,315.00
2022-11-20T01:52:59.920Z,315.00
2022-11-20T01:53:59.908Z,315.00
2022-11-20T01:54:59.932Z,318.06
2022-11-20T01:55:59.923Z,315.00
2022-11-20T01:56:59.919Z,315.00
2022-11-20T01:57:59.917Z,315.00
2022-11-20T01:58:59.889Z,309.16
2022-11-20T01:59:59.933Z,133.54
2022-11-20T02:00:59.979Z,124.98
2022-11-20T02:01:59.917Z,71.81
2022-11-20T02:02:59.926Z,180.00
2022-11-20T02:03:59.939Z,180.00
2022-11-20T02:04:59.940Z,316.18
2022-11-20T02:05:59.899Z,315.00
2022-11-20T02:06:59.974Z,315.00
2022-11-20T02:07:59.990Z,315.00
2022-11-20T02:09:00.067Z,315.00
2022-11-20T02:10:00.090Z,315.00
2022-11-20T02:11:00.112Z,315.00
2022-11-20T02:12:00.127Z,122.23
2022-11-20T02:13:00.107Z,330.41
2022-11-20T02:14:00.122Z,327.50
2022-11-20T02:15:00.146Z,135.00
2022-11-20T02:16:00.143Z,135.00
2022-11-20T02:17:00.158Z,50.21
2022-11-20T02:18:00.163Z,0.00
2022-11-20T02:19:00.200Z,0.00
2022-11-20T02:20:00.199Z,359.47
2022-11-20T02:21:00.198Z,0.00
2022-11-20T02:22:00.219Z,0.00
2022-11-20T02:23:00.226Z,0.00
2022-11-20T02:24:00.244Z,0.00
2022-11-20T02:25:00.250Z,0.00
2022-11-20T02:26:00.272Z,0.00
2022-11-20T02:27:00.273Z,0.00
2022-11-20T02:28:00.286Z,358.30
2022-11-20T02:29:00.302Z,356.32
2022-11-20T02:30:00.303Z,357.60
2022-11-20T02:31:00.343Z,225.00
2022-11-20T02:32:00.347Z,225.00
2022-11-20T02:33:00.360Z,225.00
2022-11-20T02:34:00.354Z,225.00
2022-11-20T02:35:00.377Z,225.00
2022-11-20T02:36:00.383Z,225.00
2022-11-20T02:37:00.398Z,225.00
2022-11-20T02:38:00.411Z,225.00
2022-11-20T02:39:00.405Z,225.00
2022-11-20T02:40:00.438Z,225.00
2022-11-20T02:41:00.458Z,225.00
2022-11-20T02:42:00.460Z,225.00
2022-11-20T02:43:00.462Z,225.00
2022-11-20T02:44:00.471Z,225.00
2022-11-20T02:45:00.470Z,225.00
2022-11-20T02:46:00.531Z,225.00
2022-11-20T02:47:00.507Z,225.00
2022-11-20T02:48:00.529Z,225.00
2022-11-20T02:49:00.530Z,225.00
2022-11-20T02:50:00.554Z,225.00
2022-11-20T02:51:00.572Z,225.00
2022-11-20T02:52:00.555Z,225.00
2022-11-20T02:53:00.569Z,148.42
2022-11-20T02:54:00.574Z,12.44
2022-11-20T02:55:00.580Z,20.62
2022-11-20T02:56:00.623Z,54.71
2022-11-20T02:57:00.599Z,270.00
2022-11-20T02:58:00.646Z,270.00
2022-11-20T02:59:00.630Z,321.81
2022-11-20T03:00:00.636Z,0.00
2022-11-20T03:01:00.695Z,357.71
2022-11-20T03:02:00.705Z,326.02
2022-11-20T03:03:00.679Z,122.05
2022-11-20T03:04:00.690Z,315.00
2022-11-20T03:05:00.710Z,315.00
2022-11-20T03:06:00.708Z,315.00
2022-11-20T03:07:00.788Z,315.00
2022-11-20T03:08:00.733Z,315.00
2022-11-20T03:09:00.759Z,331.49
2022-11-20T03:10:00.758Z,90.00
2022-11-20T03:11:00.777Z,90.00
2022-11-20T03:12:00.792Z,90.00
2022-11-20T03:13:00.806Z,94.37
2022-11-20T03:14:00.812Z,135.00
2022-11-20T03:15:00.811Z,135.00
2022-11-20T03:16:00.822Z,134.45
2022-11-20T03:17:00.877Z,0.00
2022-11-20T03:18:00.869Z,0.00
2022-11-20T03:19:00.878Z,0.00
2022-11-20T03:20:00.873Z,0.00
2022-11-20T03:21:00.899Z,0.00
2022-11-20T03:22:00.909Z,2.10
2022-11-20T03:23:00.921Z,135.00
2022-11-20T03:24:00.943Z,135.01
2022-11-20T03:25:00.953Z,315.00
2022-11-20T03:26:00.956Z,134.46
2022-11-20T03:27:00.971Z,269.02
2022-11-20T03:28:00.972Z,101.76
2022-11-20T03:29:00.996Z,81.30
2022-11-20T03:30:00.998Z,90.00
2022-11-20T03:31:01.008Z,47.20
2022-11-20T03:32:01.038Z,316.87
2022-11-20T03:33:01.027Z,135.00
2022-11-20T03:34:01.051Z,135.00
2022-11-20T03:35:01.058Z,135.00
2022-11-20T03:36:01.068Z,135.00
2022-11-20T03:37:01.124Z,135.00
2022-11-20T03:38:01.092Z,135.00
2022-11-20T03:39:01.102Z,135.00
2022-11-20T03:40:01.111Z,132.91
2022-11-20T03:41:01.127Z,90.00
2022-11-20T03:42:01.166Z,21.65
2022-11-20T03:43:01.170Z,0.00
2022-11-20T03:44:01.166Z,0.00
2022-11-20T03:45:01.185Z,0.00
2022-11-20T03:46:01.189Z,0.00
2022-11-20T03:47:01.199Z,0.00
2022-11-20T03:48:01.244Z,0.00
2022-11-20T03:49:01.231Z,29.91
2022-11-20T03:50:01.247Z,90.00
2022-11-20T03:51:01.252Z,77.40
2022-11-20T03:52:01.264Z,0.00
2022-11-20T03:53:01.280Z,0.00
2022-11-20T03:54:01.291Z,0.00
2022-11-20T03:55:01.293Z,0.00
2022-11-20T03:56:01.316Z,0.00
2022-11-20T03:57:01.345Z,0.00
2022-11-20T03:58:01.369Z,0.00
2022-11-20T03:59:01.367Z,355.27
2022-11-20T04:00:01.352Z,225.00
2022-11-20T04:01:01.393Z,225.00
2022-11-20T04:02:01.409Z,225.00
2022-11-20T04:03:01.413Z,225.00
2022-11-20T04:04:01.399Z,225.00
2022-11-20T04:05:01.423Z,225.00
2022-11-20T04:06:01.428Z,225.00
2022-11-20T04:07:01.483Z,225.00
2022-11-20T04:08:01.456Z,225.00
2022-11-20T04:09:01.472Z,225.00
2022-11-20T04:10:01.497Z,225.00
2022-11-20T04:11:01.489Z,225.00
2022-11-20T04:12:01.529Z,225.00
2022-11-20T04:13:01.521Z,225.00
2022-11-20T04:14:01.528Z,111.16
2022-11-20T04:15:01.524Z,95.50
2022-11-20T04:16:01.537Z,135.00
2022-11-20T04:17:01.554Z,135.00
2022-11-20T04:18:01.571Z,135.00
2022-11-20T04:19:01.588Z,135.00
2022-11-20T04:20:01.606Z,135.00
2022-11-20T04:21:01.628Z,135.00
2022-11-20T04:22:01.616Z,135.00
2022-11-20T04:23:01.623Z,135.00
2022-11-20T04:24:01.656Z,135.00
2022-11-20T04:25:01.647Z,135.00
2022-11-20T04:26:01.669Z,135.00
2022-11-20T04:27:01.679Z,135.00
2022-11-20T04:28:01.686Z,135.00
2022-11-20T04:29:01.712Z,315.00
2022-11-20T04:30:01.716Z,315.00
2022-11-20T04:31:01.711Z,315.00
2022-11-20T04:32:01.740Z,278.51
2022-11-20T04:33:01.751Z,258.27
2022-11-20T04:34:01.778Z,315.00
2022-11-20T04:35:01.770Z,29.96
2022-11-20T04:36:01.772Z,95.72
2022-11-20T04:37:01.786Z,124.49
2022-11-20T04:38:01.802Z,135.00
2022-11-20T04:39:01.874Z,315.00
2022-11-20T04:40:01.831Z,315.00
2022-11-20T04:41:01.851Z,315.00
2022-11-20T04:42:01.854Z,315.00
2022-11-20T04:43:01.870Z,315.00
2022-11-20T04:44:01.922Z,315.00
2022-11-20T04:45:01.892Z,315.00
2022-11-20T04:46:01.900Z,315.00
2022-11-20T04:47:01.904Z,315.00
2022-11-20T04:48:01.940Z,279.05
2022-11-20T04:49:01.978Z,225.00
2022-11-20T04:50:02.019Z,225.00
2022-11-20T04:51:01.972Z,225.00
2022-11-20T04:52:01.983Z,229.28
2022-11-20T04:53:02.038Z,315.00
2022-11-20T04:54:02.019Z,315.00
2022-11-20T04:55:02.007Z,315.00
2022-11-20T04:56:02.017Z,315.00
2022-11-20T04:57:02.029Z,315.00
2022-11-20T04:58:02.044Z,315.00
2022-11-20T04:59:02.072Z,315.00
2022-11-20T05:00:02.088Z,315.00
2022-11-20T05:01:02.070Z,318.04
2022-11-20T05:02:02.157Z,356.29
2022-11-20T05:03:02.158Z,315.00
2022-11-20T05:04:02.135Z,315.00
2022-11-20T05:05:02.122Z,315.00
2022-11-20T05:06:02.149Z,315.00
2022-11-20T05:07:02.171Z,315.00
2022-11-20T05:08:02.155Z,315.00
2022-11-20T05:09:02.208Z,315.00
2022-11-20T05:10:02.209Z,315.00
2022-11-20T05:11:02.196Z,315.00
2022-11-20T05:12:02.205Z,315.00
2022-11-20T05:13:02.219Z,315.00
2022-11-20T05:14:02.249Z,315.00
2022-11-20T05:15:02.253Z,315.00
2022-11-20T05:16:02.245Z,315.00
2022-11-20T05:17:02.270Z,315.00
2022-11-20T05:18:02.290Z,315.00
2022-11-20T05:19:02.290Z,315.00
2022-11-20T05:20:02.331Z,315.00
2022-11-20T05:21:02.331Z,315.00
2022-11-20T05:22:02.331Z,315.00
2022-11-20T05:23:02.344Z,315.00
2022-11-20T05:24:02.354Z,315.00
2022-11-20T05:25:02.369Z,315.00
2022-11-20T05:26:02.382Z,315.00
2022-11-20T05:27:02.391Z,315.00
2022-11-20T05:28:02.399Z,315.00
2022-11-20T05:29:02.420Z,315.00
2022-11-20T05:30:02.421Z,315.00
2022-11-20T05:31:02.450Z,315.00
2022-11-20T05:32:02.444Z,316.36
2022-11-20T05:33:02.461Z,343.33
2022-11-20T05:34:02.472Z,315.00
2022-11-20T05:35:02.494Z,315.00
2022-11-20T05:36:02.492Z,315.00
2022-11-20T05:37:02.519Z,315.00
2022-11-20T05:38:02.515Z,315.00
2022-11-20T05:39:02.545Z,315.00
2022-11-20T05:40:02.583Z,315.00
2022-11-20T05:41:02.587Z,216.62
2022-11-20T05:42:02.560Z,147.28
2022-11-20T05:43:02.585Z,45.00
2022-11-20T05:44:02.578Z,45.00
2022-11-20T05:45:02.623Z,45.00
2022-11-20T05:46:02.610Z,45.00
2022-11-20T05:47:02.628Z,45.00
2022-11-20T05:48:02.649Z,12.51
2022-11-20T05:49:02.635Z,315.00
2022-11-20T05:50:02.672Z,315.00
2022-11-20T05:51:02.674Z,315.00
2022-11-20T05:52:02.676Z,315.00
2022-11-20T05:53:02.698Z,315.00
2022-11-20T05:54:02.735Z,315.00
2022-11-20T05:55:02.719Z,315.00
2022-11-20T05:56:02.757Z,315.00
2022-11-20T05:57:02.746Z,315.00
2022-11-20T05:58:02.764Z,315.00
2022-11-20T05:59:02.776Z,315.00
2022-11-20T06:00:02.799Z,315.00
2022-11-20T06:01:02.812Z,315.00
2022-11-20T06:02:02.795Z,315.00
2022-11-20T06:03:02.905Z,315.00
2022-11-20T06:04:02.824Z,315.00
2022-11-20T06:05:02.887Z,315.00
2022-11-20T06:06:02.851Z,315.00
2022-11-20T06:07:02.953Z,315.00
2022-11-20T06:08:02.869Z,315.00
2022-11-20T06:09:02.890Z,315.00
2022-11-20T06:10:02.914Z,315.00
2022-11-20T06:11:02.920Z,315.00
2022-11-20T06:12:02.913Z,315.00
2022-11-20T06:13:02.934Z,315.00
2022-11-20T06:14:02.937Z,315.00
2022-11-20T06:15:02.976Z,315.00
2022-11-20T06:16:02.978Z,315.00
2022-11-20T06:17:02.991Z,315.00
2022-11-20T06:18:03.014Z,315.00
2022-11-20T06:19:03.002Z,315.00
2022-11-20T06:20:03.016Z,315.00
2022-11-20T06:21:03.031Z,315.00
2022-11-20T06:22:03.072Z,267.86
2022-11-20T06:23:03.046Z,180.00
2022-11-20T06:24:03.063Z,180.00
2022-11-20T06:25:03.072Z,180.00
2022-11-20T06:26:03.092Z,180.00
2022-11-20T06:27:03.099Z,186.75
2022-11-20T06:28:03.105Z,315.00
2022-11-20T06:29:03.114Z,315.00
2022-11-20T06:30:03.129Z,315.00
2022-11-20T06:31:03.142Z,315.00
2022-11-20T06:32:03.174Z,315.00
2022-11-20T06:33:03.170Z,341.76
2022-11-20T06:34:03.189Z,329.25
2022-11-20T06:35:03.188Z,70.03
2022-11-20T06:36:08.901Z,45.00
2022-11-20T06:37:03.214Z,45.00
2022-11-20T06:38:03.196Z,41.84
2022-11-20T06:39:03.199Z,225.00
2022-11-20T06:40:03.198Z,225.00
2022-11-20T06:41:03.217Z,305.13
2022-11-20T06:42:03.287Z,0.00
2022-11-20T06:43:03.209Z,0.00
2022-11-20T06:44:03.228Z,0.00
2022-11-20T06:45:03.211Z,332.43
2022-11-20T06:46:03.198Z,315.00
2022-11-20T06:47:03.225Z,315.00
2022-11-20T06:48:03.220Z,315.00
2022-11-20T06:49:03.263Z,315.00
2022-11-20T06:50:03.212Z,315.00
2022-11-20T06:51:03.219Z,315.00
2022-11-20T06:52:03.227Z,315.00
2022-11-20T06:53:03.242Z,201.63
2022-11-20T06:54:03.210Z,252.76
2022-11-20T06:55:03.198Z,135.00
2022-11-20T06:56:03.220Z,135.00
2022-11-20T06:57:03.225Z,135.00
2022-11-20T06:58:03.238Z,135.00
2022-11-20T06:59:03.234Z,135.00
2022-11-20T07:00:03.231Z,135.00
2022-11-20T07:01:03.308Z,135.00
2022-11-20T07:02:03.239Z,135.00
2022-11-20T07:03:03.247Z,135.00
2022-11-20T07:04:03.251Z,135.00
2022-11-20T07:05:03.234Z,135.00
2022-11-20T07:06:03.239Z,93.03
2022-11-20T07:07:03.297Z,90.00
2022-11-20T07:08:03.273Z,90.00
2022-11-20T07:09:03.252Z,90.00
2022-11-20T07:10:03.252Z,90.00
2022-11-20T07:11:03.251Z,123.91
2022-11-20T07:12:03.237Z,225.00
2022-11-20T07:13:03.259Z,241.48
2022-11-20T07:14:03.256Z,323.07
2022-11-20T07:15:03.250Z,247.87
2022-11-20T07:16:03.241Z,315.00
2022-11-20T07:17:03.254Z,315.00
2022-11-20T07:18:03.259Z,135.00
2022-11-20T07:19:03.253Z,135.00
2022-11-20T07:20:03.246Z,135.00
2022-11-20T07:21:03.236Z,135.00
2022-11-20T07:22:03.245Z,129.83
2022-11-20T07:23:03.260Z,315.00
2022-11-20T07:24:03.276Z,315.00
2022-11-20T07:25:03.241Z,315.01
2022-11-20T07:26:03.254Z,305.10
2022-11-20T07:27:03.246Z,270.00
2022-11-20T07:28:03.264Z,270.00
2022-11-20T07:29:03.274Z,270.00
2022-11-20T07:30:03.258Z,270.00
2022-11-20T07:31:03.263Z,279.92
2022-11-20T07:32:03.258Z,315.00
2022-11-20T07:33:24.109Z,315.00
2022-11-20T07:34:24.113Z,315.00
2022-11-20T07:35:24.109Z,315.00
2022-11-20T07:36:24.124Z,315.00
2022-11-20T07:37:24.124Z,315.00
2022-11-20T07:38:24.158Z,315.00
2022-11-20T07:39:24.220Z,315.00
2022-11-20T07:40:24.128Z,315.00
2022-11-20T07:41:24.127Z,315.00
2022-11-20T07:42:24.122Z,315.00
2022-11-20T07:43:24.155Z,315.00
2022-11-20T07:44:24.115Z,315.00
2022-11-20T07:45:24.121Z,315.00
2022-11-20T07:46:24.129Z,315.00
2022-11-20T07:47:24.112Z,315.00
2022-11-20T07:48:24.145Z,39.23
2022-11-20T07:49:24.443Z,135.00
2022-11-20T07:50:24.143Z,135.00
2022-11-20T07:51:24.125Z,135.00
2022-11-20T07:52:24.142Z,315.00
2022-11-20T07:53:24.158Z,315.00
2022-11-20T07:54:24.158Z,315.00
2022-11-20T07:55:24.167Z,315.00
2022-11-20T07:56:24.192Z,315.00
2022-11-20T07:57:28.182Z,315.00
2022-11-20T07:58:24.181Z,315.00
2022-11-20T07:59:24.248Z,315.00
2022-11-20T08:00:24.175Z,315.00
2022-11-20T08:01:24.242Z,315.00
2022-11-20T08:02:24.160Z,315.00
2022-11-20T08:03:24.891Z,315.00
2022-11-20T08:04:24.181Z,315.00
2022-11-20T08:05:24.177Z,315.00
2022-11-20T08:06:24.169Z,315.00
2022-11-20T08:07:24.241Z,315.00
2022-11-20T08:08:24.180Z,315.00
2022-11-20T08:09:24.165Z,315.00
2022-11-20T08:10:24.176Z,315.00
2022-11-20T08:11:24.188Z,315.00
2022-11-20T08:12:24.308Z,315.00
2022-11-20T08:13:24.336Z,315.00
2022-11-20T08:14:24.343Z,315.00
2022-11-20T08:15:24.351Z,315.00
2022-11-20T08:16:24.358Z,336.99
2022-11-20T08:17:24.386Z,315.00
2022-11-20T08:18:31.336Z,291.91
2022-11-20T08:19:24.641Z,283.85
2022-11-20T08:20:24.485Z,0.00
2022-11-20T08:21:24.385Z,0.00
2022-11-20T08:22:24.409Z,348.25
2022-11-20T08:23:24.383Z,315.00
2022-11-20T08:24:24.408Z,315.00
2022-11-20T08:25:24.409Z,315.00
2022-11-20T08:26:24.392Z,315.00
2022-11-20T08:27:24.406Z,315.00
2022-11-20T08:28:24.416Z,315.00
2022-11-20T08:29:24.738Z,315.00
2022-11-20T08:30:24.474Z,315.00
2022-11-20T08:31:24.444Z,315.00
2022-11-20T08:32:24.465Z,315.00
2022-11-20T08:33:24.469Z,315.00
2022-11-20T08:34:24.474Z,315.00
2022-11-20T08:35:24.506Z,315.00
2022-11-20T08:36:24.526Z,315.00
2022-11-20T08:37:24.511Z,315.00
2022-11-20T08:38:24.544Z,315.00
2022-11-20T08:39:24.728Z,315.00
2022-11-20T08:40:24.601Z,315.00
2022-11-20T08:41:24.586Z,315.00
2022-11-20T08:42:24.584Z,315.00
2022-11-20T08:43:24.596Z,315.00
2022-11-20T08:44:24.614Z,315.00
2022-11-20T08:45:26.486Z,315.00
2022-11-20T08:46:24.626Z,315.00
2022-11-20T08:47:24.634Z,357.35
2022-11-20T08:48:24.635Z,0.00
2022-11-20T08:49:24.846Z,352.78
2022-11-20T08:50:24.622Z,315.00
2022-11-20T08:51:24.637Z,315.00
2022-11-20T08:52:24.626Z,315.00
2022-11-20T08:53:24.613Z,315.00
2022-11-20T08:54:24.630Z,353.72
2022-11-20T08:55:24.614Z,351.90
2022-11-20T08:56:24.626Z,315.00
2022-11-20T08:57:24.633Z,315.00
2022-11-20T08:58:24.616Z,315.00
2022-11-20T08:59:43.809Z,315.00
2022-11-20T09:00:24.635Z,315.00
2022-11-20T09:01:24.816Z,315.00
2022-11-20T09:02:24.638Z,315.00
2022-11-20T09:03:28.568Z,315.00
2022-11-20T09:04:24.707Z,315.00
2022-11-20T09:05:24.620Z,315.00
2022-11-20T09:06:24.651Z,315.00
2022-11-20T09:07:24.687Z,315.00
2022-11-20T09:08:24.648Z,315.00
2022-11-20T09:09:24.985Z,315.00
2022-11-20T09:10:25.168Z,315.00
2022-11-20T09:11:26.861Z,315.00
2022-11-20T09:12:24.633Z,315.00
2022-11-20T09:13:24.639Z,315.00
2022-11-20T09:14:24.659Z,315.00
2022-11-20T09:15:24.638Z,315.00
2022-11-20T09:16:24.638Z,315.00
2022-11-20T09:17:24.669Z,315.00
2022-11-20T09:18:24.641Z,315.00
2022-11-20T09:19:36.176Z,315.00
2022-11-20T09:20:24.651Z,315.00
2022-11-20T09:21:24.863Z,315.00
2022-11-20T09:22:24.646Z,315.00
2022-11-20T09:23:24.640Z,315.00
2022-11-20T09:24:24.666Z,315.00
2022-11-20T09:25:24.661Z,315.00
2022-11-20T09:26:24.658Z,344.18
2022-11-20T09:27:24.658Z,351.81
2022-11-20T09:28:24.654Z,324.07
2022-11-20T09:29:24.662Z,0.00
2022-11-20T09:30:24.665Z,0.00
2022-11-20T09:31:24.650Z,0.00
2022-11-20T09:32:24.656Z,324.93
2022-11-20T09:33:24.657Z,315.00
2022-11-20T09:34:24.668Z,327.76
2022-11-20T09:35:24.664Z,45.62
2022-11-20T09:36:24.667Z,0.00
2022-11-20T09:37:24.654Z,0.00
2022-11-20T09:38:24.656Z,0.00
2022-11-20T09:39:24.820Z,0.00
2022-11-20T09:40:24.663Z,339.21
2022-11-20T09:41:24.661Z,315.00
2022-11-20T09:42:24.660Z,315.00
2022-11-20T09:43:24.679Z,315.00
2022-11-20T09:44:24.685Z,315.00
2022-11-20T09:45:24.699Z,336.18
2022-11-20T09:46:24.671Z,315.00
2022-11-20T09:47:24.667Z,315.00
2022-11-20T09:48:24.685Z,315.00
2022-11-20T09:49:29.132Z,315.00
2022-11-20T09:50:24.714Z,315.00
2022-11-20T09:51:24.713Z,315.00
2022-11-20T09:52:24.706Z,315.00
2022-11-20T09:53:24.707Z,315.00
2022-11-20T09:54:24.762Z,315.00
2022-11-20T09:55:24.713Z,315.00
2022-11-20T09:56:24.712Z,315.00
2022-11-20T09:57:24.710Z,315.00
2022-11-20T09:58:24.715Z,307.95
2022-11-20T09:59:24.724Z,221.48
2022-11-20T10:00:24.694Z,23.87
2022-11-20T10:01:24.771Z,53.74
2022-11-20T10:02:24.723Z,343.54
2022-11-20T10:03:24.721Z,315.00
2022-11-20T10:04:24.744Z,328.21
2022-11-20T10:05:24.717Z,47.32
2022-11-20T10:06:24.756Z,64.52
2022-11-20T10:07:33.122Z,315.00
2022-11-20T10:08:24.769Z,263.74
2022-11-20T10:09:24.914Z,225.00
2022-11-20T10:10:24.721Z,225.00
2022-11-20T10:11:24.723Z,225.00
2022-11-20T10:12:24.722Z,225.00
2022-11-20T10:13:24.724Z,225.00
2022-11-20T10:14:24.739Z,225.00
2022-11-20T10:15:24.719Z,225.00
2022-11-20T10:16:24.729Z,225.00
2022-11-20T10:17:24.733Z,231.89
2022-11-20T10:18:24.737Z,0.00
2022-11-20T10:19:24.809Z,357.61
2022-11-20T10:20:24.738Z,315.00
2022-11-20T10:21:24.734Z,315.00
2022-11-20T10:22:24.748Z,315.00
2022-11-20T10:23:26.098Z,315.00
2022-11-20T10:24:24.737Z,321.77
2022-11-20T10:25:24.744Z,315.00
2022-11-20T10:26:24.761Z,330.85
2022-11-20T10:27:24.742Z,315.00
2022-11-20T10:28:24.749Z,315.00
2022-11-20T10:29:24.949Z,315.00
2022-11-20T10:30:24.763Z,315.00
2022-11-20T10:31:24.757Z,315.00
2022-11-20T10:32:24.743Z,316.82
2022-11-20T10:33:24.726Z,0.00
2022-11-20T10:34:24.756Z,0.00
2022-11-20T10:35:24.743Z,0.00
2022-11-20T10:36:24.742Z,0.00
2022-11-20T10:37:24.754Z,0.00
2022-11-20T10:38:24.758Z,0.00
2022-11-20T10:39:24.921Z,0.00
2022-11-20T10:40:24.794Z,0.00
2022-11-20T10:41:24.797Z,0.00
2022-11-20T10:42:24.847Z,0.00
2022-11-20T10:43:24.816Z,0.00
2022-11-20T10:44:24.841Z,354.52
2022-11-20T10:45:24.879Z,315.00
2022-11-20T10:46:24.853Z,315.00
2022-11-20T10:47:24.980Z,315.00
2022-11-20T10:48:24.899Z,315.00
2022-11-20T10:49:24.935Z,315.00
2022-11-20T10:50:24.928Z,315.00
2022-11-20T10:51:24.929Z,315.00
2022-11-20T10:52:24.944Z,315.00
2022-11-20T10:53:24.935Z,315.00
2022-11-20T10:54:24.977Z,315.00
2022-11-20T10:55:24.994Z,315.00
2022-11-20T10:56:24.965Z,315.00
2022-11-20T10:57:25.002Z,315.00
2022-11-20T10:58:25.006Z,315.00
2022-11-20T10:59:25.030Z,315.00
2022-11-20T11:00:25.037Z,315.00
2022-11-20T11:01:25.113Z,329.68
2022-11-20T11:02:25.059Z,0.00
2022-11-20T11:03:25.065Z,0.00
2022-11-20T11:04:25.099Z,0.00
2022-11-20T11:05:25.091Z,355.69
2022-11-20T11:06:25.102Z,315.00
2022-11-20T11:07:25.124Z,315.00
2022-11-20T11:08:25.142Z,315.00
2022-11-20T11:09:25.293Z,315.00
2022-11-20T11:10:25.154Z,315.00
2022-11-20T11:11:25.168Z,315.00
2022-11-20T11:12:25.193Z,315.00
2022-11-20T11:13:25.203Z,315.00
2022-11-20T11:14:25.233Z,315.00
2022-11-20T11:15:25.193Z,315.00
2022-11-20T11:16:25.245Z,315.00
2022-11-20T11:17:25.257Z,315.00
2022-11-20T11:18:25.259Z,315.00
2022-11-20T11:19:25.469Z,315.00
2022-11-20T11:20:25.282Z,135.00
2022-11-20T11:21:25.319Z,135.00
2022-11-20T11:22:25.286Z,135.00
2022-11-20T11:23:25.305Z,111.02
2022-11-20T11:24:41.652Z,0.00
2022-11-20T11:25:25.317Z,0.00
2022-11-20T11:26:25.334Z,0.00
2022-11-20T11:27:25.329Z,0.00
2022-11-20T11:28:25.333Z,0.00
2022-11-20T11:29:25.429Z,0.00
2022-11-20T11:30:25.313Z,0.00
2022-11-20T11:31:25.328Z,0.00
2022-11-20T11:32:25.336Z,0.00
2022-11-20T11:33:25.329Z,0.00
2022-11-20T11:34:25.362Z,0.00
2022-11-20T11:35:25.329Z,0.29
2022-11-20T11:36:25.303Z,23.94
2022-11-20T11:37:25.339Z,0.00
2022-11-20T11:38:25.337Z,26.91
2022-11-20T11:39:25.652Z,135.00
2022-11-20T11:40:25.585Z,135.00
2022-11-20T11:41:25.351Z,315.00
2022-11-20T11:42:25.346Z,315.00
2022-11-20T11:43:25.342Z,315.00
2022-11-20T11:44:25.361Z,315.00
2022-11-20T11:45:25.352Z,315.00
2022-11-20T11:46:25.349Z,315.00
2022-11-20T11:47:25.332Z,320.57
2022-11-20T11:48:25.396Z,321.05
2022-11-20T11:49:25.748Z,315.00
2022-11-20T11:50:25.325Z,315.00
2022-11-20T11:51:25.346Z,315.00
2022-11-20T11:52:25.342Z,315.00
2022-11-20T11:53:25.348Z,315.00
2022-11-20T11:54:25.353Z,315.00
2022-11-20T11:55:25.352Z,315.00
2022-11-20T11:56:25.343Z,315.00
2022-11-20T11:57:25.351Z,315.00
2022-11-20T11:58:25.360Z,315.00
2022-11-20T11:59:25.702Z,315.00
2022-11-20T12:00:25.354Z,315.00
2022-11-20T12:01:25.347Z,315.00
2022-11-20T12:02:25.367Z,315.00
2022-11-20T12:03:25.361Z,315.00
2022-11-20T12:04:25.371Z,315.00
2022-11-20T12:05:25.377Z,315.00
2022-11-20T12:06:25.377Z,315.00
2022-11-20T12:07:45.396Z,315.00
2022-11-20T12:08:25.420Z,315.00
2022-11-20T12:09:25.693Z,315.00
2022-11-20T12:10:25.355Z,315.00
2022-11-20T12:11:25.375Z,315.00
2022-11-20T12:12:25.362Z,315.00
2022-11-20T12:13:25.355Z,315.00
2022-11-20T12:14:25.362Z,315.00
2022-11-20T12:15:25.376Z,315.00
2022-11-20T12:16:25.385Z,315.00
2022-11-20T12:17:25.374Z,315.00
2022-11-20T12:18:25.366Z,318.07
2022-11-20T12:19:25.744Z,315.00
2022-11-20T12:20:25.375Z,314.11
2022-11-20T12:21:25.375Z,315.00
2022-11-20T12:22:25.374Z,315.00
2022-11-20T12:23:25.376Z,315.00
2022-11-20T12:24:25.403Z,315.00
2022-11-20T12:25:25.379Z,315.00
2022-11-20T12:26:25.369Z,315.00
2022-11-20T12:27:25.362Z,315.00
2022-11-20T12:28:25.377Z,315.00
2022-11-20T12:29:25.656Z,315.00
2022-11-20T12:30:25.397Z,315.00
2022-11-20T12:31:25.384Z,315.00
2022-11-20T12:32:25.389Z,315.00
2022-11-20T12:33:25.375Z,315.00
2022-11-20T12:34:25.495Z,315.00
2022-11-20T12:35:25.384Z,315.53